Marin — WZC8518 — position and weather

sailwx.info

Track history (hours):
 
Tides and Currents Weather Stations Pressure Air Temp Water Temp Dewpoint Dewpoint Depression Visibility Wind Speed Wind Dir Waves Ship Positions

Marin

Owner: GOLDEN GATE BRIDGE HWY & TRANSP DISTRICT, LARKSPUR, CA. More information available from US FCC via Universal Licensing System and Coast Guard Vessel Documentation Center.

Last reported at 2018-Jan-04 16:58 UTC. Time now 2018-Apr-26 01:29 UTC.
Position N 37°47' W 122°18'.
Warning: this ship's position is months out of date.

Length 45 m; draft 2.5 m.

Type: Passenger vessel. MMSI: 366969980.

Date/timePositionNaut miles runAvg speedWind from/ knotsBaromVisibWave heightAir tempDewpointWater temp
2018-Jan-04 16:58N 37°47' W 122°18'2 3.8
2018-Jan-04 16:31N 37°48' W 122°20'714.5
2018-Jan-04 16:00N 37°53' W 122°26'510.2
2018-Jan-04 15:30N 37°57' W 122°31'  
2018-Jan-01 03:58N 37°57' W 122°31'0 0.1
2018-Jan-01 03:30N 37°57' W 122°31'2 3.8
2018-Jan-01 03:00N 37°56' W 122°28'917.2
2018-Jan-01 02:31N 37°48' W 122°23'0 0.9
2018-Jan-01 02:00N 37°48' W 122°23'510.9
2018-Jan-01 01:30N 37°51' W 122°29'5 5.4
2018-Jan-01 00:30N 37°48' W 122°24'2 0.7
2017-Dec-31 21:01N 37°50' W 122°25'3 6.8
2017-Dec-31 20:30N 37°51' W 122°29'510.7
2017-Dec-31 20:00N 37°48' W 122°24'4 7.6
2017-Dec-31 19:30N 37°51' W 122°27'1 1.2
2017-Dec-31 19:00N 37°51' W 122°27'4 8.8
2017-Dec-31 18:31N 37°48' W 122°24'611.9
2017-Dec-31 18:00N 37°53' W 122°26'5 9.7
2017-Dec-31 17:30N 37°57' W 122°31'0 0.0
2017-Dec-31 04:21N 37°57' W 122°31'2 5.8
2017-Dec-31 04:00N 37°56' W 122°28'917.5
2017-Dec-31 03:30N 37°48' W 122°24'3 5.0
2017-Dec-31 03:00N 37°50' W 122°25'3 6.2
2017-Dec-31 02:30N 37°51' W 122°29'510.8
2017-Dec-31 02:00N 37°48' W 122°24'2 4.8
2017-Dec-31 01:31N 37°50' W 122°24'815.8
2017-Dec-31 01:01N 37°56' W 122°30'1 1.8
2017-Dec-31 00:31N 37°56' W 122°29'815.3
2017-Dec-31 00:01N 37°50' W 122°23'2 4.3
2017-Dec-30 23:30N 37°48' W 122°24'0 0.0
2017-Dec-30 23:01N 37°48' W 122°24'0 0.6
2017-Dec-30 22:30N 37°48' W 122°23'917.8
2017-Dec-30 22:01N 37°56' W 122°29'1 2.0
2017-Dec-30 21:30N 37°56' W 122°30'713.5
2017-Dec-30 21:00N 37°51' W 122°24'3 5.7
2017-Dec-30 20:31N 37°48' W 122°23'917.6
2017-Dec-30 20:00N 37°56' W 122°29'1 2.9
2017-Dec-30 19:30N 37°57' W 122°31'0 0.0
2017-Dec-30 05:04N 37°56' W 122°30'111.2
2017-Dec-30 05:01N 37°56' W 122°29'5 9.6
2017-Dec-30 04:31N 37°51' W 122°29'510.7
2017-Dec-30 04:01N 37°48' W 122°23'4 8.3
2017-Dec-30 03:31N 37°51' W 122°27'2 3.9
2017-Dec-30 03:01N 37°51' W 122°25'3 5.0
2017-Dec-30 02:31N 37°48' W 122°23'510.3
2017-Dec-30 02:00N 37°51' W 122°29'510.8
2017-Dec-30 01:30N 37°48' W 122°24'2 3.9
2017-Dec-30 01:01N 37°49' W 122°25'4 7.3
2017-Dec-30 00:31N 37°51' W 122°29'510.7
2017-Dec-30 00:00N 37°48' W 122°24'3 6.3
2017-Dec-29 23:30N 37°50' W 122°26'2 4.4
2017-Dec-29 23:00N 37°51' W 122°28'510.5
2017-Dec-29 22:30N 37°48' W 122°24'5 9.9
2017-Dec-29 22:00N 37°51' W 122°28'1 1.0
2017-Dec-29 21:30N 37°51' W 122°29'510.7
2017-Dec-29 21:01N 37°48' W 122°23'2 4.7
2017-Dec-29 20:31N 37°50' W 122°25'3 6.0
2017-Dec-29 20:01N 37°51' W 122°29'510.8
2017-Dec-29 19:31N 37°48' W 122°24'5 9.4
2017-Dec-29 19:00N 37°51' W 122°28'1 1.4
2017-Dec-29 18:31N 37°51' W 122°29'510.8
2017-Dec-29 18:00N 37°48' W 122°24'0 0.0
2017-Dec-29 17:30N 37°48' W 122°24'0 0.0
2017-Dec-29 17:01N 37°48' W 122°24'3 6.5
2017-Dec-29 16:30N 37°50' W 122°26'2 4.5
2017-Dec-29 16:00N 37°51' W 122°29'0 0.0
2017-Dec-29 15:30N 37°51' W 122°29'5 9.1
2017-Dec-29 15:00N 37°56' W 122°29'2 3.2
2017-Dec-29 14:30N 37°57' W 122°31'0 0.0
2017-Dec-29 05:18N 37°57' W 122°31'2 6.6
2017-Dec-29 05:00N 37°56' W 122°28'4 8.9
2017-Dec-29 04:30N 37°51' W 122°29'510.8
2017-Dec-29 04:01N 37°48' W 122°23'0 0.3
2017-Dec-29 03:31N 37°48' W 122°24'0 0.0
2017-Dec-29 03:01N 37°48' W 122°24'510.5
2017-Dec-29 02:31N 37°51' W 122°28'1 1.5
2017-Dec-29 02:01N 37°51' W 122°28'5 9.4
2017-Dec-29 01:30N 37°48' W 122°24'4 7.6
2017-Dec-29 01:00N 37°51' W 122°27'1 2.9
2017-Dec-29 00:30N 37°51' W 122°28'510.4
2017-Dec-29 00:00N 37°48' W 122°24'4 8.0
2017-Dec-28 23:31N 37°51' W 122°27'1 2.1
2017-Dec-28 23:00N 37°51' W 122°28'510.0
2017-Dec-28 22:30N 37°48' W 122°24'510.5
2017-Dec-28 22:00N 37°51' W 122°28'0 0.3
2017-Dec-28 21:30N 37°51' W 122°29'510.8
2017-Dec-28 21:01N 37°48' W 122°23'3 5.1
2017-Dec-28 20:30N 37°50' W 122°25'3 5.8
2017-Dec-28 20:01N 37°51' W 122°29'510.7
2017-Dec-28 19:30N 37°48' W 122°24'510.0
2017-Dec-28 19:00N 37°51' W 122°28'0 0.9
2017-Dec-28 18:30N 37°51' W 122°29'510.9
2017-Dec-28 18:01N 37°48' W 122°24'0 0.0
2017-Dec-28 17:31N 37°48' W 122°24'0 0.0
2017-Dec-28 17:00N 37°48' W 122°24'3 6.5
2017-Dec-28 16:30N 37°50' W 122°26'2 4.7
2017-Dec-28 16:00N 37°51' W 122°29'0 0.0
2017-Dec-28 15:30N 37°51' W 122°29'4 8.0
2017-Dec-28 15:00N 37°55' W 122°28'3 0.3
2017-Dec-28 05:21N 37°57' W 122°31'2 6.3
2017-Dec-28 05:00N 37°56' W 122°28'4 8.7
2017-Dec-28 04:30N 37°51' W 122°29'510.8
2017-Dec-28 04:00N 37°48' W 122°24'510.9
2017-Dec-28 03:30N 37°51' W 122°29'4 8.7
2017-Dec-28 03:00N 37°50' W 122°24'1 2.6
2017-Dec-28 02:30N 37°50' W 122°25'3 5.8
2017-Dec-28 02:00N 37°51' W 122°29'510.5
2017-Dec-28 01:30N 37°48' W 122°24'4 7.9
2017-Dec-28 01:01N 37°51' W 122°27'1 3.0
2017-Dec-28 00:30N 37°51' W 122°29'510.6
2017-Dec-28 00:00N 37°48' W 122°24'4 7.1
2017-Dec-27 23:31N 37°50' W 122°26'2 3.7
2017-Dec-27 23:01N 37°51' W 122°29'510.5
2017-Dec-27 22:30N 37°48' W 122°24'510.2
2017-Dec-27 22:00N 37°51' W 122°28'0 0.7
2017-Dec-27 21:30N 37°51' W 122°29'510.8
2017-Dec-27 21:01N 37°48' W 122°24'3 5.1
2017-Dec-27 20:31N 37°50' W 122°25'2 4.8
2017-Dec-27 20:00N 37°51' W 122°28'5 9.8
2017-Dec-27 19:30N 37°48' W 122°24'5 9.9
2017-Dec-27 19:00N 37°51' W 122°28'0 0.9
2017-Dec-27 18:31N 37°51' W 122°29'510.8
2017-Dec-27 18:00N 37°48' W 122°24'0 0.0
2017-Dec-27 17:30N 37°48' W 122°24'0 0.0
2017-Dec-27 17:00N 37°48' W 122°24'3 6.4
2017-Dec-27 16:31N 37°50' W 122°26'2 4.8
2017-Dec-27 16:00N 37°51' W 122°29'0 0.4
2017-Dec-27 15:30N 37°51' W 122°28'5 9.3
2017-Dec-27 15:00N 37°56' W 122°29'2 3.1
2017-Dec-27 14:31N 37°57' W 122°31'0 0.0
2017-Dec-27 05:21N 37°57' W 122°31'2 5.9
2017-Dec-27 05:00N 37°56' W 122°28'4 8.7
2017-Dec-27 04:30N 37°51' W 122°29'510.8
2017-Dec-27 04:01N 37°48' W 122°24'4 8.3
2017-Dec-27 03:30N 37°51' W 122°27'1 2.9
2017-Dec-27 03:00N 37°51' W 122°25'2 3.6
2017-Dec-27 02:30N 37°49' W 122°24'4 8.5
2017-Dec-27 02:00N 37°51' W 122°29'510.9
2017-Dec-27 01:30N 37°48' W 122°24'3 6.9
2017-Dec-27 01:00N 37°50' W 122°26'2 3.4
2017-Dec-27 00:30N 37°51' W 122°28'510.1
2017-Dec-27 00:00N 37°48' W 122°24'4 7.8
2017-Dec-26 23:30N 37°50' W 122°27'1 2.4
2017-Dec-26 23:00N 37°51' W 122°28'510.1
2017-Dec-26 22:30N 37°48' W 122°24'510.4
2017-Dec-26 22:01N 37°51' W 122°28'0 0.5
2017-Dec-26 21:30N 37°51' W 122°29'510.8
2017-Dec-26 21:00N 37°48' W 122°23'2 3.3
2017-Dec-26 20:30N 37°49' W 122°24'4 7.8
2017-Dec-26 20:01N 37°51' W 122°29'510.8
2017-Dec-26 19:30N 37°48' W 122°24'5 9.5
2017-Dec-26 19:00N 37°51' W 122°28'1 1.4
2017-Dec-26 18:30N 37°51' W 122°29'510.9
2017-Dec-26 18:00N 37°48' W 122°24'0 0.0
2017-Dec-26 17:31N 37°48' W 122°24'0 0.0
2017-Dec-26 17:00N 37°48' W 122°24'3 7.0
2017-Dec-26 16:30N 37°50' W 122°26'2 4.1
2017-Dec-26 16:00N 37°51' W 122°29'0 0.2
2017-Dec-26 15:30N 37°51' W 122°29'5 9.5
2017-Dec-26 15:00N 37°56' W 122°29'1 2.5
2017-Dec-26 14:30N 37°57' W 122°31'  
Track history (hours):
 
Tides and Currents Weather Stations Pressure Air Temp Water Temp Dewpoint Dewpoint Depression Visibility Wind Speed Wind Dir Waves Ship Positions

Marin

Owner: GOLDEN GATE BRIDGE HWY & TRANSP DISTRICT, LARKSPUR, CA. More information available from US FCC via Universal Licensing System and Coast Guard Vessel Documentation Center.

Last reported at 2018-Jan-04 16:58 UTC. Time now 2018-Apr-26 01:29 UTC.
Position N 37°47' W 122°18'.
Warning: this ship's position is months out of date.

Length 45 m; draft 2.5 m.

Type: Passenger vessel. MMSI: 366969980.

Date/timePositionNaut miles runAvg speedWind from/ knotsBaromVisibWave heightAir tempDewpointWater temp
2018-Jan-04 16:58N 37°47' W 122°18'2 3.8
2018-Jan-04 16:31N 37°48' W 122°20'714.5
2018-Jan-04 16:00N 37°53' W 122°26'510.2
2018-Jan-04 15:30N 37°57' W 122°31'  
2018-Jan-01 03:58N 37°57' W 122°31'0 0.1
2018-Jan-01 03:30N 37°57' W 122°31'2 3.8
2018-Jan-01 03:00N 37°56' W 122°28'917.2
2018-Jan-01 02:31N 37°48' W 122°23'0 0.9
2018-Jan-01 02:00N 37°48' W 122°23'510.9
2018-Jan-01 01:30N 37°51' W 122°29'5 5.4
2018-Jan-01 00:30N 37°48' W 122°24'2 0.7
2017-Dec-31 21:01N 37°50' W 122°25'3 6.8
2017-Dec-31 20:30N 37°51' W 122°29'510.7
2017-Dec-31 20:00N 37°48' W 122°24'4 7.6
2017-Dec-31 19:30N 37°51' W 122°27'1 1.2
2017-Dec-31 19:00N 37°51' W 122°27'4 8.8
2017-Dec-31 18:31N 37°48' W 122°24'611.9
2017-Dec-31 18:00N 37°53' W 122°26'5 9.7
2017-Dec-31 17:30N 37°57' W 122°31'0 0.0
2017-Dec-31 04:21N 37°57' W 122°31'2 5.8
2017-Dec-31 04:00N 37°56' W 122°28'917.5
2017-Dec-31 03:30N 37°48' W 122°24'3 5.0
2017-Dec-31 03:00N 37°50' W 122°25'3 6.2
2017-Dec-31 02:30N 37°51' W 122°29'510.8
2017-Dec-31 02:00N 37°48' W 122°24'2 4.8
2017-Dec-31 01:31N 37°50' W 122°24'815.8
2017-Dec-31 01:01N 37°56' W 122°30'1 1.8
2017-Dec-31 00:31N 37°56' W 122°29'815.3
2017-Dec-31 00:01N 37°50' W 122°23'2 4.3
2017-Dec-30 23:30N 37°48' W 122°24'0 0.0
2017-Dec-30 23:01N 37°48' W 122°24'0 0.6
2017-Dec-30 22:30N 37°48' W 122°23'917.8
2017-Dec-30 22:01N 37°56' W 122°29'1 2.0
2017-Dec-30 21:30N 37°56' W 122°30'713.5
2017-Dec-30 21:00N 37°51' W 122°24'3 5.7
2017-Dec-30 20:31N 37°48' W 122°23'917.6
2017-Dec-30 20:00N 37°56' W 122°29'1 2.9
2017-Dec-30 19:30N 37°57' W 122°31'0 0.0
2017-Dec-30 05:04N 37°56' W 122°30'111.2
2017-Dec-30 05:01N 37°56' W 122°29'5 9.6
2017-Dec-30 04:31N 37°51' W 122°29'510.7
2017-Dec-30 04:01N 37°48' W 122°23'4 8.3
2017-Dec-30 03:31N 37°51' W 122°27'2 3.9
2017-Dec-30 03:01N 37°51' W 122°25'3 5.0
2017-Dec-30 02:31N 37°48' W 122°23'510.3
2017-Dec-30 02:00N 37°51' W 122°29'510.8
2017-Dec-30 01:30N 37°48' W 122°24'2 3.9
2017-Dec-30 01:01N 37°49' W 122°25'4 7.3
2017-Dec-30 00:31N 37°51' W 122°29'510.7
2017-Dec-30 00:00N 37°48' W 122°24'3 6.3
2017-Dec-29 23:30N 37°50' W 122°26'2 4.4
2017-Dec-29 23:00N 37°51' W 122°28'510.5
2017-Dec-29 22:30N 37°48' W 122°24'5 9.9
2017-Dec-29 22:00N 37°51' W 122°28'1 1.0
2017-Dec-29 21:30N 37°51' W 122°29'510.7
2017-Dec-29 21:01N 37°48' W 122°23'2 4.7
2017-Dec-29 20:31N 37°50' W 122°25'3 6.0
2017-Dec-29 20:01N 37°51' W 122°29'510.8
2017-Dec-29 19:31N 37°48' W 122°24'5 9.4
2017-Dec-29 19:00N 37°51' W 122°28'1 1.4
2017-Dec-29 18:31N 37°51' W 122°29'510.8
2017-Dec-29 18:00N 37°48' W 122°24'0 0.0
2017-Dec-29 17:30N 37°48' W 122°24'0 0.0
2017-Dec-29 17:01N 37°48' W 122°24'3 6.5
2017-Dec-29 16:30N 37°50' W 122°26'2 4.5
2017-Dec-29 16:00N 37°51' W 122°29'0 0.0
2017-Dec-29 15:30N 37°51' W 122°29'5 9.1
2017-Dec-29 15:00N 37°56' W 122°29'2 3.2
2017-Dec-29 14:30N 37°57' W 122°31'0 0.0
2017-Dec-29 05:18N 37°57' W 122°31'2 6.6
2017-Dec-29 05:00N 37°56' W 122°28'4 8.9
2017-Dec-29 04:30N 37°51' W 122°29'510.8
2017-Dec-29 04:01N 37°48' W 122°23'0 0.3
2017-Dec-29 03:31N 37°48' W 122°24'0 0.0
2017-Dec-29 03:01N 37°48' W 122°24'510.5
2017-Dec-29 02:31N 37°51' W 122°28'1 1.5
2017-Dec-29 02:01N 37°51' W 122°28'5 9.4
2017-Dec-29 01:30N 37°48' W 122°24'4 7.6
2017-Dec-29 01:00N 37°51' W 122°27'1 2.9
2017-Dec-29 00:30N 37°51' W 122°28'510.4
2017-Dec-29 00:00N 37°48' W 122°24'4 8.0
2017-Dec-28 23:31N 37°51' W 122°27'1 2.1
2017-Dec-28 23:00N 37°51' W 122°28'510.0
2017-Dec-28 22:30N 37°48' W 122°24'510.5
2017-Dec-28 22:00N 37°51' W 122°28'0 0.3
2017-Dec-28 21:30N 37°51' W 122°29'510.8
2017-Dec-28 21:01N 37°48' W 122°23'3 5.1
2017-Dec-28 20:30N 37°50' W 122°25'3 5.8
2017-Dec-28 20:01N 37°51' W 122°29'510.7
2017-Dec-28 19:30N 37°48' W 122°24'510.0
2017-Dec-28 19:00N 37°51' W 122°28'0 0.9
2017-Dec-28 18:30N 37°51' W 122°29'510.9
2017-Dec-28 18:01N 37°48' W 122°24'0 0.0
2017-Dec-28 17:31N 37°48' W 122°24'0 0.0
2017-Dec-28 17:00N 37°48' W 122°24'3 6.5
2017-Dec-28 16:30N 37°50' W 122°26'2 4.7
2017-Dec-28 16:00N 37°51' W 122°29'0 0.0
2017-Dec-28 15:30N 37°51' W 122°29'4 8.0
2017-Dec-28 15:00N 37°55' W 122°28'3 0.3
2017-Dec-28 05:21N 37°57' W 122°31'2 6.3
2017-Dec-28 05:00N 37°56' W 122°28'4 8.7
2017-Dec-28 04:30N 37°51' W 122°29'510.8
2017-Dec-28 04:00N 37°48' W 122°24'510.9
2017-Dec-28 03:30N 37°51' W 122°29'4 8.7
2017-Dec-28 03:00N 37°50' W 122°24'1 2.6
2017-Dec-28 02:30N 37°50' W 122°25'3 5.8
2017-Dec-28 02:00N 37°51' W 122°29'510.5
2017-Dec-28 01:30N 37°48' W 122°24'4 7.9
2017-Dec-28 01:01N 37°51' W 122°27'1 3.0
2017-Dec-28 00:30N 37°51' W 122°29'510.6
2017-Dec-28 00:00N 37°48' W 122°24'4 7.1
2017-Dec-27 23:31N 37°50' W 122°26'2 3.7
2017-Dec-27 23:01N 37°51' W 122°29'510.5
2017-Dec-27 22:30N 37°48' W 122°24'510.2
2017-Dec-27 22:00N 37°51' W 122°28'0 0.7
2017-Dec-27 21:30N 37°51' W 122°29'510.8
2017-Dec-27 21:01N 37°48' W 122°24'3 5.1
2017-Dec-27 20:31N 37°50' W 122°25'2 4.8
2017-Dec-27 20:00N 37°51' W 122°28'5 9.8
2017-Dec-27 19:30N 37°48' W 122°24'5 9.9
2017-Dec-27 19:00N 37°51' W 122°28'0 0.9
2017-Dec-27 18:31N 37°51' W 122°29'510.8
2017-Dec-27 18:00N 37°48' W 122°24'0 0.0
2017-Dec-27 17:30N 37°48' W 122°24'0 0.0
2017-Dec-27 17:00N 37°48' W 122°24'3 6.4
2017-Dec-27 16:31N 37°50' W 122°26'2 4.8
2017-Dec-27 16:00N 37°51' W 122°29'0 0.4
2017-Dec-27 15:30N 37°51' W 122°28'5 9.3
2017-Dec-27 15:00N 37°56' W 122°29'2 3.1
2017-Dec-27 14:31N 37°57' W 122°31'0 0.0
2017-Dec-27 05:21N 37°57' W 122°31'2 5.9
2017-Dec-27 05:00N 37°56' W 122°28'4 8.7
2017-Dec-27 04:30N 37°51' W 122°29'510.8
2017-Dec-27 04:01N 37°48' W 122°24'4 8.3
2017-Dec-27 03:30N 37°51' W 122°27'1 2.9
2017-Dec-27 03:00N 37°51' W 122°25'2 3.6
2017-Dec-27 02:30N 37°49' W 122°24'4 8.5
2017-Dec-27 02:00N 37°51' W 122°29'510.9
2017-Dec-27 01:30N 37°48' W 122°24'3 6.9
2017-Dec-27 01:00N 37°50' W 122°26'2 3.4
2017-Dec-27 00:30N 37°51' W 122°28'510.1
2017-Dec-27 00:00N 37°48' W 122°24'4 7.8
2017-Dec-26 23:30N 37°50' W 122°27'1 2.4
2017-Dec-26 23:00N 37°51' W 122°28'510.1
2017-Dec-26 22:30N 37°48' W 122°24'510.4
2017-Dec-26 22:01N 37°51' W 122°28'0 0.5
2017-Dec-26 21:30N 37°51' W 122°29'510.8
2017-Dec-26 21:00N 37°48' W 122°23'2 3.3
2017-Dec-26 20:30N 37°49' W 122°24'4 7.8
2017-Dec-26 20:01N 37°51' W 122°29'510.8
2017-Dec-26 19:30N 37°48' W 122°24'5 9.5
2017-Dec-26 19:00N 37°51' W 122°28'1 1.4
2017-Dec-26 18:30N 37°51' W 122°29'510.9
2017-Dec-26 18:00N 37°48' W 122°24'0 0.0
2017-Dec-26 17:31N 37°48' W 122°24'0 0.0
2017-Dec-26 17:00N 37°48' W 122°24'3 7.0
2017-Dec-26 16:30N 37°50' W 122°26'2 4.1
2017-Dec-26 16:00N 37°51' W 122°29'0 0.2
2017-Dec-26 15:30N 37°51' W 122°29'5 9.5
2017-Dec-26 15:00N 37°56' W 122°29'1 2.5
2017-Dec-26 14:30N 37°57' W 122°31'  

Dump ship's entire track history